sensor_id;sensor_type;location;lat;lon;timestamp;temperature;humidity
16118;DHT22;8163;50.118;5.342;2022-10-14T00:00:30;12.30;99.90
16118;DHT22;8163;50.118;5.342;2022-10-14T00:02:57;12.20;99.90
16118;DHT22;8163;50.118;5.342;2022-10-14T00:05:24;12.30;99.90
16118;DHT22;8163;50.118;5.342;2022-10-14T00:07:51;12.30;99.90
16118;DHT22;8163;50.118;5.342;2022-10-14T00:10:18;12.30;99.90
16118;DHT22;8163;50.118;5.342;2022-10-14T00:12:45;12.30;99.90
16118;DHT22;8163;50.118;5.342;2022-10-14T00:15:13;12.30;99.90
16118;DHT22;8163;50.118;5.342;2022-10-14T00:17:40;12.30;99.90
16118;DHT22;8163;50.118;5.342;2022-10-14T00:20:08;12.30;99.90
16118;DHT22;8163;50.118;5.342;2022-10-14T00:22:35;12.30;99.90
16118;DHT22;8163;50.118;5.342;2022-10-14T00:25:02;12.30;99.90
16118;DHT22;8163;50.118;5.342;2022-10-14T00:27:29;12.30;99.90
16118;DHT22;8163;50.118;5.342;2022-10-14T00:29:56;12.30;99.90
16118;DHT22;8163;50.118;5.342;2022-10-14T00:32:25;12.30;99.90
16118;DHT22;8163;50.118;5.342;2022-10-14T00:34:51;12.20;99.90
16118;DHT22;8163;50.118;5.342;2022-10-14T00:37:18;12.30;99.90
16118;DHT22;8163;50.118;5.342;2022-10-14T00:39:45;12.30;99.90
16118;DHT22;8163;50.118;5.342;2022-10-14T00:42:13;12.20;99.90
16118;DHT22;8163;50.118;5.342;2022-10-14T00:45:05;12.20;99.90
16118;DHT22;8163;50.118;5.342;2022-10-14T00:47:34;12.20;99.90
16118;DHT22;8163;50.118;5.342;2022-10-14T00:50:01;12.20;99.90
16118;DHT22;8163;50.118;5.342;2022-10-14T00:52:29;12.20;99.90
16118;DHT22;8163;50.118;5.342;2022-10-14T00:55:00;12.20;99.90
16118;DHT22;8163;50.118;5.342;2022-10-14T00:57:28;12.20;99.90
16118;DHT22;8163;50.118;5.342;2022-10-14T01:00:00;12.20;99.90
16118;DHT22;8163;50.118;5.342;2022-10-14T01:02:28;12.20;99.90
16118;DHT22;8163;50.118;5.342;2022-10-14T01:04:57;12.30;99.90
16118;DHT22;8163;50.118;5.342;2022-10-14T01:07:30;12.20;99.90
16118;DHT22;8163;50.118;5.342;2022-10-14T01:10:03;12.20;99.90
16118;DHT22;8163;50.118;5.342;2022-10-14T01:12:38;12.30;99.90
16118;DHT22;8163;50.118;5.342;2022-10-14T01:15:16;12.20;99.90
16118;DHT22;8163;50.118;5.342;2022-10-14T01:17:52;12.20;99.90
16118;DHT22;8163;50.118;5.342;2022-10-14T01:21:00;12.20;99.90
16118;DHT22;8163;50.118;5.342;2022-10-14T01:23:56;12.10;99.90
16118;DHT22;8163;50.118;5.342;2022-10-14T01:26:52;12.20;99.90
16118;DHT22;8163;50.118;5.342;2022-10-14T01:32:24;12.20;99.90
16118;DHT22;8163;50.118;5.342;2022-10-14T01:35:01;12.20;99.90
16118;DHT22;8163;50.118;5.342;2022-10-14T01:37:30;12.20;99.90
16118;DHT22;8163;50.118;5.342;2022-10-14T01:40:01;12.20;99.90
16118;DHT22;8163;50.118;5.342;2022-10-14T01:42:32;12.20;99.90
16118;DHT22;8163;50.118;5.342;2022-10-14T01:45:03;12.30;99.90
16118;DHT22;8163;50.118;5.342;2022-10-14T01:47:33;12.30;99.90
16118;DHT22;8163;50.118;5.342;2022-10-14T01:50:03;12.30;99.90
16118;DHT22;8163;50.118;5.342;2022-10-14T01:52:36;12.30;99.90
16118;DHT22;8163;50.118;5.342;2022-10-14T01:55:08;12.30;99.90
16118;DHT22;8163;50.118;5.342;2022-10-14T01:57:38;12.40;99.90
16118;DHT22;8163;50.118;5.342;2022-10-14T02:00:07;12.30;99.90
16118;DHT22;8163;50.118;5.342;2022-10-14T02:02:37;12.30;99.90
16118;DHT22;8163;50.118;5.342;2022-10-14T02:05:07;12.30;99.90
16118;DHT22;8163;50.118;5.342;2022-10-14T02:07:38;12.30;99.90
16118;DHT22;8163;50.118;5.342;2022-10-14T02:10:15;12.30;99.90
16118;DHT22;8163;50.118;5.342;2022-10-14T02:12:52;12.30;99.90
16118;DHT22;8163;50.118;5.342;2022-10-14T02:15:30;12.40;99.90
16118;DHT22;8163;50.118;5.342;2022-10-14T02:18:04;12.30;99.90
16118;DHT22;8163;50.118;5.342;2022-10-14T02:20:34;12.30;99.90
16118;DHT22;8163;50.118;5.342;2022-10-14T02:23:05;12.30;99.90
16118;DHT22;8163;50.118;5.342;2022-10-14T02:25:35;12.30;99.90
16118;DHT22;8163;50.118;5.342;2022-10-14T02:28:05;12.30;99.90
16118;DHT22;8163;50.118;5.342;2022-10-14T02:30:39;12.40;99.90
16118;DHT22;8163;50.118;5.342;2022-10-14T02:33:08;12.40;99.90
16118;DHT22;8163;50.118;5.342;2022-10-14T02:35:36;12.40;99.90
16118;DHT22;8163;50.118;5.342;2022-10-14T02:38:04;12.40;99.90
16118;DHT22;8163;50.118;5.342;2022-10-14T02:40:36;12.40;99.90
16118;DHT22;8163;50.118;5.342;2022-10-14T02:43:04;12.40;99.90
16118;DHT22;8163;50.118;5.342;2022-10-14T02:45:33;12.40;99.90
16118;DHT22;8163;50.118;5.342;2022-10-14T02:48:00;12.40;99.90
16118;DHT22;8163;50.118;5.342;2022-10-14T02:50:28;12.40;99.90
16118;DHT22;8163;50.118;5.342;2022-10-14T02:52:55;12.40;99.90
16118;DHT22;8163;50.118;5.342;2022-10-14T02:55:22;12.40;99.90
16118;DHT22;8163;50.118;5.342;2022-10-14T02:57:49;12.40;99.90
16118;DHT22;8163;50.118;5.342;2022-10-14T03:00:16;12.40;99.90
16118;DHT22;8163;50.118;5.342;2022-10-14T03:02:43;12.40;99.90
16118;DHT22;8163;50.118;5.342;2022-10-14T03:05:10;12.40;99.90
16118;DHT22;8163;50.118;5.342;2022-10-14T03:07:39;12.40;99.90
16118;DHT22;8163;50.118;5.342;2022-10-14T03:10:06;12.40;99.90
16118;DHT22;8163;50.118;5.342;2022-10-14T03:12:33;12.40;99.90
16118;DHT22;8163;50.118;5.342;2022-10-14T03:15:00;12.40;99.90
16118;DHT22;8163;50.118;5.342;2022-10-14T03:17:26;12.50;99.90
16118;DHT22;8163;50.118;5.342;2022-10-14T03:19:54;12.50;99.90
16118;DHT22;8163;50.118;5.342;2022-10-14T03:22:21;12.50;99.90
16118;DHT22;8163;50.118;5.342;2022-10-14T03:24:50;12.50;99.90
16118;DHT22;8163;50.118;5.342;2022-10-14T03:27:16;12.50;99.90
16118;DHT22;8163;50.118;5.342;2022-10-14T03:29:43;12.50;99.90
16118;DHT22;8163;50.118;5.342;2022-10-14T03:32:10;12.50;99.90
16118;DHT22;8163;50.118;5.342;2022-10-14T03:34:37;12.50;99.90
16118;DHT22;8163;50.118;5.342;2022-10-14T03:37:05;12.60;99.90
16118;DHT22;8163;50.118;5.342;2022-10-14T03:39:32;12.50;99.90
16118;DHT22;8163;50.118;5.342;2022-10-14T03:42:00;12.50;99.90
16118;DHT22;8163;50.118;5.342;2022-10-14T03:44:27;12.60;99.90
16118;DHT22;8163;50.118;5.342;2022-10-14T03:46:54;12.60;99.90
16118;DHT22;8163;50.118;5.342;2022-10-14T03:49:21;12.60;99.90
16118;DHT22;8163;50.118;5.342;2022-10-14T03:51:48;12.60;99.90
16118;DHT22;8163;50.118;5.342;2022-10-14T03:54:15;12.60;99.90
16118;DHT22;8163;50.118;5.342;2022-10-14T03:56:42;12.60;99.90
16118;DHT22;8163;50.118;5.342;2022-10-14T03:59:10;12.60;99.90
16118;DHT22;8163;50.118;5.342;2022-10-14T04:01:37;12.60;99.90
16118;DHT22;8163;50.118;5.342;2022-10-14T04:04:04;12.60;99.90
16118;DHT22;8163;50.118;5.342;2022-10-14T04:06:30;12.60;99.90
16118;DHT22;8163;50.118;5.342;2022-10-14T04:08:57;12.60;99.90
16118;DHT22;8163;50.118;5.342;2022-10-14T04:11:24;12.60;99.90
16118;DHT22;8163;50.118;5.342;2022-10-14T04:13:51;12.60;99.90
16118;DHT22;8163;50.118;5.342;2022-10-14T04:16:19;12.60;99.90
16118;DHT22;8163;50.118;5.342;2022-10-14T04:18:46;12.60;99.90
16118;DHT22;8163;50.118;5.342;2022-10-14T04:21:13;12.50;99.90
16118;DHT22;8163;50.118;5.342;2022-10-14T04:23:41;12.50;99.90
16118;DHT22;8163;50.118;5.342;2022-10-14T04:26:08;12.50;99.90
16118;DHT22;8163;50.118;5.342;2022-10-14T04:28:36;12.50;99.90
16118;DHT22;8163;50.118;5.342;2022-10-14T04:31:03;12.50;99.90
16118;DHT22;8163;50.118;5.342;2022-10-14T04:33:32;12.50;99.90
16118;DHT22;8163;50.118;5.342;2022-10-14T04:36:01;12.60;99.90
16118;DHT22;8163;50.118;5.342;2022-10-14T04:38:28;12.50;99.90
16118;DHT22;8163;50.118;5.342;2022-10-14T04:40:56;12.50;99.90
16118;DHT22;8163;50.118;5.342;2022-10-14T04:43:23;12.50;99.90
16118;DHT22;8163;50.118;5.342;2022-10-14T04:45:50;12.60;99.90
16118;DHT22;8163;50.118;5.342;2022-10-14T04:48:17;12.50;99.90
16118;DHT22;8163;50.118;5.342;2022-10-14T04:50:48;12.50;99.90
16118;DHT22;8163;50.118;5.342;2022-10-14T04:53:17;12.50;99.90
16118;DHT22;8163;50.118;5.342;2022-10-14T04:55:45;12.60;99.90
16118;DHT22;8163;50.118;5.342;2022-10-14T04:58:14;12.60;99.90
16118;DHT22;8163;50.118;5.342;2022-10-14T05:00:41;12.50;99.90
16118;DHT22;8163;50.118;5.342;2022-10-14T05:03:08;12.60;99.90
16118;DHT22;8163;50.118;5.342;2022-10-14T05:05:35;12.60;99.90
16118;DHT22;8163;50.118;5.342;2022-10-14T05:08:04;12.60;99.90
16118;DHT22;8163;50.118;5.342;2022-10-14T05:10:32;12.60;99.90
16118;DHT22;8163;50.118;5.342;2022-10-14T05:13:01;12.60;99.90
16118;DHT22;8163;50.118;5.342;2022-10-14T05:15:29;12.60;99.90
16118;DHT22;8163;50.118;5.342;2022-10-14T05:17:56;12.60;99.90
16118;DHT22;8163;50.118;5.342;2022-10-14T05:20:23;12.70;99.90
16118;DHT22;8163;50.118;5.342;2022-10-14T05:22:50;12.70;99.90
16118;DHT22;8163;50.118;5.342;2022-10-14T05:25:18;12.70;99.90
16118;DHT22;8163;50.118;5.342;2022-10-14T05:27:45;12.70;99.90
16118;DHT22;8163;50.118;5.342;2022-10-14T05:30:12;12.70;99.90
16118;DHT22;8163;50.118;5.342;2022-10-14T05:32:39;12.70;99.90
16118;DHT22;8163;50.118;5.342;2022-10-14T05:35:07;12.70;99.90
16118;DHT22;8163;50.118;5.342;2022-10-14T05:37:34;12.70;99.90
16118;DHT22;8163;50.118;5.342;2022-10-14T05:40:01;12.70;99.90
16118;DHT22;8163;50.118;5.342;2022-10-14T05:42:32;12.70;99.90
16118;DHT22;8163;50.118;5.342;2022-10-14T05:44:59;12.70;99.90
16118;DHT22;8163;50.118;5.342;2022-10-14T05:47:26;12.70;99.90
16118;DHT22;8163;50.118;5.342;2022-10-14T05:49:53;12.80;99.90
16118;DHT22;8163;50.118;5.342;2022-10-14T05:52:20;12.80;99.90
16118;DHT22;8163;50.118;5.342;2022-10-14T05:54:47;12.80;99.90
16118;DHT22;8163;50.118;5.342;2022-10-14T05:57:16;12.80;99.90
16118;DHT22;8163;50.118;5.342;2022-10-14T05:59:45;12.80;99.90
16118;DHT22;8163;50.118;5.342;2022-10-14T06:02:11;12.80;99.90
16118;DHT22;8163;50.118;5.342;2022-10-14T06:04:38;12.80;99.90
16118;DHT22;8163;50.118;5.342;2022-10-14T06:07:07;12.80;99.90
16118;DHT22;8163;50.118;5.342;2022-10-14T06:09:35;12.80;99.90
16118;DHT22;8163;50.118;5.342;2022-10-14T06:12:02;12.80;99.90
16118;DHT22;8163;50.118;5.342;2022-10-14T06:14:29;12.80;99.90
16118;DHT22;8163;50.118;5.342;2022-10-14T06:16:57;12.80;99.90
16118;DHT22;8163;50.118;5.342;2022-10-14T06:19:24;12.80;99.90
16118;DHT22;8163;50.118;5.342;2022-10-14T06:21:52;12.80;99.90
16118;DHT22;8163;50.118;5.342;2022-10-14T06:24:19;12.90;99.90
16118;DHT22;8163;50.118;5.342;2022-10-14T06:26:46;12.90;99.90
16118;DHT22;8163;50.118;5.342;2022-10-14T06:29:17;12.90;99.90
16118;DHT22;8163;50.118;5.342;2022-10-14T06:31:51;12.90;99.90
16118;DHT22;8163;50.118;5.342;2022-10-14T06:34:19;12.90;99.90
16118;DHT22;8163;50.118;5.342;2022-10-14T06:36:48;12.90;99.90
16118;DHT22;8163;50.118;5.342;2022-10-14T06:39:15;12.90;99.90
16118;DHT22;8163;50.118;5.342;2022-10-14T06:41:42;12.90;99.90
16118;DHT22;8163;50.118;5.342;2022-10-14T06:44:09;13.00;99.90
16118;DHT22;8163;50.118;5.342;2022-10-14T06:46:36;13.00;99.90
16118;DHT22;8163;50.118;5.342;2022-10-14T06:49:03;13.10;99.90
16118;DHT22;8163;50.118;5.342;2022-10-14T06:51:32;13.10;99.90
16118;DHT22;8163;50.118;5.342;2022-10-14T06:53:59;13.10;99.90
16118;DHT22;8163;50.118;5.342;2022-10-14T06:56:26;13.10;99.90
16118;DHT22;8163;50.118;5.342;2022-10-14T06:58:54;13.10;99.90
16118;DHT22;8163;50.118;5.342;2022-10-14T07:01:21;13.10;99.90
16118;DHT22;8163;50.118;5.342;2022-10-14T07:03:48;13.20;99.90
16118;DHT22;8163;50.118;5.342;2022-10-14T07:06:15;13.10;99.90
16118;DHT22;8163;50.118;5.342;2022-10-14T07:08:43;13.20;99.90
16118;DHT22;8163;50.118;5.342;2022-10-14T07:11:10;13.20;99.90
16118;DHT22;8163;50.118;5.342;2022-10-14T07:13:39;13.20;99.90
16118;DHT22;8163;50.118;5.342;2022-10-14T07:16:06;13.20;99.90
16118;DHT22;8163;50.118;5.342;2022-10-14T07:18:33;13.20;99.90
16118;DHT22;8163;50.118;5.342;2022-10-14T07:21:03;13.20;99.90
16118;DHT22;8163;50.118;5.342;2022-10-14T07:23:31;13.30;99.90
16118;DHT22;8163;50.118;5.342;2022-10-14T07:25:59;13.20;99.90
16118;DHT22;8163;50.118;5.342;2022-10-14T07:28:27;13.30;99.90
16118;DHT22;8163;50.118;5.342;2022-10-14T07:30:59;13.30;99.90
16118;DHT22;8163;50.118;5.342;2022-10-14T07:33:26;13.30;99.90
16118;DHT22;8163;50.118;5.342;2022-10-14T07:35:53;13.40;99.90
16118;DHT22;8163;50.118;5.342;2022-10-14T07:38:20;13.40;99.90
16118;DHT22;8163;50.118;5.342;2022-10-14T07:41:00;13.40;99.90
16118;DHT22;8163;50.118;5.342;2022-10-14T07:43:28;13.40;99.90
16118;DHT22;8163;50.118;5.342;2022-10-14T07:45:55;13.40;99.90
16118;DHT22;8163;50.118;5.342;2022-10-14T07:48:26;13.40;99.90
16118;DHT22;8163;50.118;5.342;2022-10-14T07:50:54;13.40;99.90
16118;DHT22;8163;50.118;5.342;2022-10-14T07:53:21;13.40;99.90
16118;DHT22;8163;50.118;5.342;2022-10-14T07:55:48;13.40;99.90
16118;DHT22;8163;50.118;5.342;2022-10-14T07:58:23;13.40;99.90
16118;DHT22;8163;50.118;5.342;2022-10-14T08:00:52;13.40;99.90
16118;DHT22;8163;50.118;5.342;2022-10-14T08:03:19;13.40;99.90
16118;DHT22;8163;50.118;5.342;2022-10-14T08:05:47;13.50;99.90
16118;DHT22;8163;50.118;5.342;2022-10-14T08:08:15;13.60;99.90
16118;DHT22;8163;50.118;5.342;2022-10-14T08:10:42;13.70;99.90
16118;DHT22;8163;50.118;5.342;2022-10-14T08:13:09;13.90;99.90
16118;DHT22;8163;50.118;5.342;2022-10-14T08:15:39;14.00;99.90
16118;DHT22;8163;50.118;5.342;2022-10-14T08:18:08;14.10;99.90
16118;DHT22;8163;50.118;5.342;2022-10-14T08:20:36;14.10;99.90
16118;DHT22;8163;50.118;5.342;2022-10-14T08:23:03;14.10;99.90
16118;DHT22;8163;50.118;5.342;2022-10-14T08:25:30;14.10;99.90
16118;DHT22;8163;50.118;5.342;2022-10-14T08:27:58;14.10;99.90
16118;DHT22;8163;50.118;5.342;2022-10-14T08:30:25;14.20;99.90
16118;DHT22;8163;50.118;5.342;2022-10-14T08:32:53;14.30;99.90
16118;DHT22;8163;50.118;5.342;2022-10-14T08:35:20;14.40;99.90
16118;DHT22;8163;50.118;5.342;2022-10-14T08:37:55;14.40;99.90
16118;DHT22;8163;50.118;5.342;2022-10-14T08:40:23;14.50;99.90
16118;DHT22;8163;50.118;5.342;2022-10-14T08:42:54;14.50;99.90
16118;DHT22;8163;50.118;5.342;2022-10-14T08:45:28;14.50;99.90
16118;DHT22;8163;50.118;5.342;2022-10-14T08:48:00;14.50;99.90
16118;DHT22;8163;50.118;5.342;2022-10-14T08:50:32;14.60;99.90
16118;DHT22;8163;50.118;5.342;2022-10-14T08:53:05;14.50;99.90
16118;DHT22;8163;50.118;5.342;2022-10-14T08:55:35;14.60;99.90
16118;DHT22;8163;50.118;5.342;2022-10-14T08:58:10;14.70;99.90
16118;DHT22;8163;50.118;5.342;2022-10-14T09:00:40;14.90;99.90
16118;DHT22;8163;50.118;5.342;2022-10-14T09:03:15;14.90;99.90
16118;DHT22;8163;50.118;5.342;2022-10-14T09:05:42;14.80;99.90
16118;DHT22;8163;50.118;5.342;2022-10-14T09:08:14;14.70;99.90
16118;DHT22;8163;50.118;5.342;2022-10-14T09:10:43;14.60;99.90
16118;DHT22;8163;50.118;5.342;2022-10-14T09:13:15;14.60;99.90
16118;DHT22;8163;50.118;5.342;2022-10-14T09:15:45;14.50;99.90
16118;DHT22;8163;50.118;5.342;2022-10-14T09:18:22;14.40;99.90
16118;DHT22;8163;50.118;5.342;2022-10-14T09:20:51;14.50;99.90
16118;DHT22;8163;50.118;5.342;2022-10-14T09:23:21;14.50;99.90
16118;DHT22;8163;50.118;5.342;2022-10-14T09:25:55;14.50;99.90
16118;DHT22;8163;50.118;5.342;2022-10-14T09:28:30;14.50;99.90
16118;DHT22;8163;50.118;5.342;2022-10-14T09:31:01;14.50;99.90
16118;DHT22;8163;50.118;5.342;2022-10-14T09:33:29;14.50;99.90
16118;DHT22;8163;50.118;5.342;2022-10-14T09:35:58;14.60;99.90
16118;DHT22;8163;50.118;5.342;2022-10-14T09:38:25;14.70;99.90
16118;DHT22;8163;50.118;5.342;2022-10-14T09:40:58;14.80;99.90
16118;DHT22;8163;50.118;5.342;2022-10-14T09:43:25;14.90;99.90
16118;DHT22;8163;50.118;5.342;2022-10-14T09:45:56;15.00;99.90
16118;DHT22;8163;50.118;5.342;2022-10-14T09:48:32;15.00;99.90
16118;DHT22;8163;50.118;5.342;2022-10-14T09:51:04;15.00;99.90
16118;DHT22;8163;50.118;5.342;2022-10-14T09:53:36;15.00;99.90
16118;DHT22;8163;50.118;5.342;2022-10-14T09:56:07;15.00;99.90
16118;DHT22;8163;50.118;5.342;2022-10-14T09:58:37;15.00;99.90
16118;DHT22;8163;50.118;5.342;2022-10-14T10:01:13;15.00;99.90
16118;DHT22;8163;50.118;5.342;2022-10-14T10:03:42;14.90;99.90
16118;DHT22;8163;50.118;5.342;2022-10-14T10:06:12;14.90;99.90
16118;DHT22;8163;50.118;5.342;2022-10-14T10:08:40;14.80;99.90
16118;DHT22;8163;50.118;5.342;2022-10-14T10:11:26;14.80;99.90
16118;DHT22;8163;50.118;5.342;2022-10-14T10:13:54;14.80;99.90
16118;DHT22;8163;50.118;5.342;2022-10-14T10:16:23;14.80;99.90
16118;DHT22;8163;50.118;5.342;2022-10-14T10:18:53;14.80;99.90
16118;DHT22;8163;50.118;5.342;2022-10-14T10:21:23;14.80;99.90
16118;DHT22;8163;50.118;5.342;2022-10-14T10:23:53;14.80;99.90
16118;DHT22;8163;50.118;5.342;2022-10-14T10:26:22;14.80;99.90
16118;DHT22;8163;50.118;5.342;2022-10-14T10:28:53;14.80;99.90
16118;DHT22;8163;50.118;5.342;2022-10-14T10:31:46;14.90;99.90
16118;DHT22;8163;50.118;5.342;2022-10-14T10:34:42;15.10;99.90
16118;DHT22;8163;50.118;5.342;2022-10-14T10:37:23;15.10;99.90
16118;DHT22;8163;50.118;5.342;2022-10-14T10:40:21;15.10;99.90
16118;DHT22;8163;50.118;5.342;2022-10-14T10:46:11;15.10;99.90
16118;DHT22;8163;50.118;5.342;2022-10-14T10:48:45;15.20;99.90
16118;DHT22;8163;50.118;5.342;2022-10-14T10:51:22;15.40;99.90
16118;DHT22;8163;50.118;5.342;2022-10-14T10:54:05;15.60;99.90
16118;DHT22;8163;50.118;5.342;2022-10-14T10:56:38;15.70;99.90
16118;DHT22;8163;50.118;5.342;2022-10-14T10:59:39;15.70;99.90
16118;DHT22;8163;50.118;5.342;2022-10-14T11:05:27;15.80;99.90
16118;DHT22;8163;50.118;5.342;2022-10-14T11:07:59;15.80;99.90
16118;DHT22;8163;50.118;5.342;2022-10-14T11:10:52;15.90;99.90
16118;DHT22;8163;50.118;5.342;2022-10-14T11:13:56;15.80;99.90
16118;DHT22;8163;50.118;5.342;2022-10-14T11:16:33;15.80;99.90
16118;DHT22;8163;50.118;5.342;2022-10-14T11:19:09;15.80;99.90
16118;DHT22;8163;50.118;5.342;2022-10-14T11:21:43;15.90;99.90
16118;DHT22;8163;50.118;5.342;2022-10-14T11:24:20;16.00;99.90
16118;DHT22;8163;50.118;5.342;2022-10-14T11:27:00;16.00;99.90
16118;DHT22;8163;50.118;5.342;2022-10-14T11:29:47;16.00;99.90
16118;DHT22;8163;50.118;5.342;2022-10-14T11:32:21;16.00;99.90
16118;DHT22;8163;50.118;5.342;2022-10-14T11:35:01;16.10;99.90
16118;DHT22;8163;50.118;5.342;2022-10-14T11:37:41;16.30;99.90
16118;DHT22;8163;50.118;5.342;2022-10-14T11:40:19;16.40;99.90
16118;DHT22;8163;50.118;5.342;2022-10-14T11:43:02;16.40;99.90
16118;DHT22;8163;50.118;5.342;2022-10-14T11:45:47;16.40;99.90
16118;DHT22;8163;50.118;5.342;2022-10-14T11:48:25;16.40;99.90
16118;DHT22;8163;50.118;5.342;2022-10-14T11:50:56;16.40;99.90
16118;DHT22;8163;50.118;5.342;2022-10-14T11:53:31;16.50;99.90
16118;DHT22;8163;50.118;5.342;2022-10-14T11:56:07;16.50;99.90
16118;DHT22;8163;50.118;5.342;2022-10-14T11:58:38;16.50;99.90
16118;DHT22;8163;50.118;5.342;2022-10-14T12:01:16;16.70;99.90
16118;DHT22;8163;50.118;5.342;2022-10-14T12:03:51;16.80;99.90
16118;DHT22;8163;50.118;5.342;2022-10-14T12:06:26;16.80;99.90
16118;DHT22;8163;50.118;5.342;2022-10-14T12:08:57;16.80;99.90
16118;DHT22;8163;50.118;5.342;2022-10-14T12:11:32;16.80;99.90
16118;DHT22;8163;50.118;5.342;2022-10-14T12:14:04;16.70;99.90
16118;DHT22;8163;50.118;5.342;2022-10-14T12:16:33;16.80;99.90
16118;DHT22;8163;50.118;5.342;2022-10-14T12:19:00;17.00;99.90
16118;DHT22;8163;50.118;5.342;2022-10-14T12:21:31;17.20;99.90
16118;DHT22;8163;50.118;5.342;2022-10-14T12:24:04;17.10;99.90
16118;DHT22;8163;50.118;5.342;2022-10-14T12:26:50;17.20;99.90
16118;DHT22;8163;50.118;5.342;2022-10-14T12:29:19;17.40;99.90
16118;DHT22;8163;50.118;5.342;2022-10-14T12:32:07;17.50;99.90
16118;DHT22;8163;50.118;5.342;2022-10-14T12:34:45;17.40;99.90
16118;DHT22;8163;50.118;5.342;2022-10-14T12:40:31;17.20;99.90
16118;DHT22;8163;50.118;5.342;2022-10-14T12:46:12;17.00;99.90
16118;DHT22;8163;50.118;5.342;2022-10-14T12:48:48;16.90;99.90
16118;DHT22;8163;50.118;5.342;2022-10-14T12:51:18;16.80;99.90
16118;DHT22;8163;50.118;5.342;2022-10-14T12:53:50;16.80;99.90
16118;DHT22;8163;50.118;5.342;2022-10-14T12:56:30;16.80;99.90
16118;DHT22;8163;50.118;5.342;2022-10-14T12:59:01;16.60;99.90
16118;DHT22;8163;50.118;5.342;2022-10-14T13:01:29;16.40;99.90
16118;DHT22;8163;50.118;5.342;2022-10-14T13:03:59;16.30;99.90
16118;DHT22;8163;50.118;5.342;2022-10-14T13:06:39;16.30;99.90
16118;DHT22;8163;50.118;5.342;2022-10-14T13:18:47;16.20;99.90
16118;DHT22;8163;50.118;5.342;2022-10-14T13:21:27;16.30;99.90
16118;DHT22;8163;50.118;5.342;2022-10-14T13:23:58;16.40;99.90
16118;DHT22;8163;50.118;5.342;2022-10-14T13:26:37;16.40;99.90
16118;DHT22;8163;50.118;5.342;2022-10-14T13:29:14;16.40;99.90
16118;DHT22;8163;50.118;5.342;2022-10-14T13:31:47;16.40;99.90
16118;DHT22;8163;50.118;5.342;2022-10-14T13:34:28;16.40;99.90
16118;DHT22;8163;50.118;5.342;2022-10-14T13:37:04;16.30;99.90
16118;DHT22;8163;50.118;5.342;2022-10-14T13:39:37;16.40;99.90
16118;DHT22;8163;50.118;5.342;2022-10-14T13:42:04;16.30;99.90
16118;DHT22;8163;50.118;5.342;2022-10-14T13:44:31;16.30;99.90
16118;DHT22;8163;50.118;5.342;2022-10-14T13:46:59;16.30;99.90
16118;DHT22;8163;50.118;5.342;2022-10-14T13:49:33;16.20;99.90
16118;DHT22;8163;50.118;5.342;2022-10-14T13:52:04;16.00;99.90
16118;DHT22;8163;50.118;5.342;2022-10-14T13:54:32;15.90;99.90
16118;DHT22;8163;50.118;5.342;2022-10-14T13:57:01;15.80;99.90
16118;DHT22;8163;50.118;5.342;2022-10-14T13:59:35;15.70;99.90
16118;DHT22;8163;50.118;5.342;2022-10-14T14:02:03;15.60;99.90
16118;DHT22;8163;50.118;5.342;2022-10-14T14:04:36;15.50;99.90
16118;DHT22;8163;50.118;5.342;2022-10-14T14:07:05;15.50;99.90
16118;DHT22;8163;50.118;5.342;2022-10-14T14:09:35;15.40;99.90
16118;DHT22;8163;50.118;5.342;2022-10-14T14:12:04;15.40;99.90
16118;DHT22;8163;50.118;5.342;2022-10-14T14:14:34;15.40;99.90
16118;DHT22;8163;50.118;5.342;2022-10-14T14:17:04;15.40;99.90
16118;DHT22;8163;50.118;5.342;2022-10-14T14:19:34;15.50;99.90
16118;DHT22;8163;50.118;5.342;2022-10-14T14:22:07;15.50;99.90
16118;DHT22;8163;50.118;5.342;2022-10-14T14:24:39;15.50;99.90
16118;DHT22;8163;50.118;5.342;2022-10-14T14:27:11;15.60;99.90
16118;DHT22;8163;50.118;5.342;2022-10-14T14:29:40;15.60;99.90
16118;DHT22;8163;50.118;5.342;2022-10-14T14:32:13;15.70;99.90
16118;DHT22;8163;50.118;5.342;2022-10-14T14:34:42;15.80;99.90
16118;DHT22;8163;50.118;5.342;2022-10-14T14:37:25;15.80;99.90
16118;DHT22;8163;50.118;5.342;2022-10-14T14:39:57;15.80;99.90
16118;DHT22;8163;50.118;5.342;2022-10-14T14:42:25;15.80;99.90
16118;DHT22;8163;50.118;5.342;2022-10-14T14:44:54;15.80;99.90
16118;DHT22;8163;50.118;5.342;2022-10-14T14:47:24;15.90;99.90
16118;DHT22;8163;50.118;5.342;2022-10-14T14:49:52;15.90;99.90
16118;DHT22;8163;50.118;5.342;2022-10-14T14:52:21;15.90;99.90
16118;DHT22;8163;50.118;5.342;2022-10-14T14:54:49;15.70;99.90
16118;DHT22;8163;50.118;5.342;2022-10-14T14:57:19;15.70;99.90
16118;DHT22;8163;50.118;5.342;2022-10-14T15:37:05;15.10;99.90
16118;DHT22;8163;50.118;5.342;2022-10-14T15:39:32;15.00;99.90
16118;DHT22;8163;50.118;5.342;2022-10-14T15:42:00;15.00;99.90
16118;DHT22;8163;50.118;5.342;2022-10-14T15:44:27;14.90;99.90
16118;DHT22;8163;50.118;5.342;2022-10-14T15:46:55;14.90;99.90
16118;DHT22;8163;50.118;5.342;2022-10-14T15:49:41;14.80;99.90
16118;DHT22;8163;50.118;5.342;2022-10-14T15:52:12;14.80;99.90
16118;DHT22;8163;50.118;5.342;2022-10-14T15:54:40;14.80;99.90
16118;DHT22;8163;50.118;5.342;2022-10-14T15:57:07;14.80;99.90
16118;DHT22;8163;50.118;5.342;2022-10-14T15:59:36;14.80;99.90
16118;DHT22;8163;50.118;5.342;2022-10-14T16:02:10;14.70;99.90
16118;DHT22;8163;50.118;5.342;2022-10-14T16:04:40;14.70;99.90
16118;DHT22;8163;50.118;5.342;2022-10-14T16:07:11;14.70;99.90
16118;DHT22;8163;50.118;5.342;2022-10-14T16:09:39;14.60;99.90
16118;DHT22;8163;50.118;5.342;2022-10-14T16:12:07;14.60;99.90
16118;DHT22;8163;50.118;5.342;2022-10-14T16:14:36;14.60;99.90
16118;DHT22;8163;50.118;5.342;2022-10-14T16:17:03;14.60;99.90
16118;DHT22;8163;50.118;5.342;2022-10-14T16:19:29;14.60;99.90
16118;DHT22;8163;50.118;5.342;2022-10-14T16:21:56;14.50;99.90
16118;DHT22;8163;50.118;5.342;2022-10-14T16:24:25;14.50;99.90
16118;DHT22;8163;50.118;5.342;2022-10-14T16:26:52;14.50;99.90
16118;DHT22;8163;50.118;5.342;2022-10-14T16:29:20;14.50;99.90
16118;DHT22;8163;50.118;5.342;2022-10-14T16:31:47;14.40;99.90
16118;DHT22;8163;50.118;5.342;2022-10-14T16:34:16;14.40;99.90
16118;DHT22;8163;50.118;5.342;2022-10-14T16:36:43;14.30;99.90
16118;DHT22;8163;50.118;5.342;2022-10-14T16:39:10;14.30;99.90
16118;DHT22;8163;50.118;5.342;2022-10-14T16:41:41;14.30;99.90
16118;DHT22;8163;50.118;5.342;2022-10-14T16:44:08;14.20;99.90
16118;DHT22;8163;50.118;5.342;2022-10-14T16:46:48;14.20;99.90
16118;DHT22;8163;50.118;5.342;2022-10-14T16:49:33;14.20;99.90
16118;DHT22;8163;50.118;5.342;2022-10-14T16:52:00;14.10;99.90
16118;DHT22;8163;50.118;5.342;2022-10-14T16:54:27;14.10;99.90
16118;DHT22;8163;50.118;5.342;2022-10-14T16:56:55;14.10;99.90
16118;DHT22;8163;50.118;5.342;2022-10-14T16:59:23;14.00;99.90
16118;DHT22;8163;50.118;5.342;2022-10-14T17:01:50;14.00;99.90
16118;DHT22;8163;50.118;5.342;2022-10-14T17:04:18;13.90;99.90
16118;DHT22;8163;50.118;5.342;2022-10-14T17:06:46;13.90;99.90
16118;DHT22;8163;50.118;5.342;2022-10-14T17:09:13;13.90;99.90